Time;durP1;ratioP1;P1;durP2;ratioP2;P2;SDS_P1;SDS_P2;PMS_P1;PMS_P2;Temp;Humidity;BMP_temperature;BMP_pressure;BME280_temperature;BME280_humidity;BME280_pressure;Samples;Min_cycle;Max_cycle;Signal;HPM_P1;HPM_P2
2021/09/11 00:00:59;;;;;;;4.55;2.17;;;16.90;71.70;;;;;;5038888;28;20052;-73
2021/09/11 00:03:25;;;;;;;4.13;2.28;;;16.90;71.50;;;;;;5038763;28;20045;-72
2021/09/11 00:05:50;;;;;;;4.03;2.03;;;16.80;71.40;;;;;;5037641;28;20030;-72
2021/09/11 00:08:16;;;;;;;4.85;2.50;;;16.80;71.30;;;;;;5038614;28;20025;-72
2021/09/11 00:10:42;;;;;;;5.45;2.72;;;16.80;71.40;;;;;;5033026;28;20030;-72
2021/09/11 00:13:08;;;;;;;5.78;3.00;;;16.80;73.00;;;;;;5031285;28;20099;-73
2021/09/11 00:15:34;;;;;;;5.50;2.85;;;16.80;73.20;;;;;;5038319;28;20025;-72
2021/09/11 00:18:05;;;;;;;6.88;2.42;;;16.80;72.90;;;;;;5038616;28;20072;-72
2021/09/11 00:20:32;;;;;;;6.40;2.90;;;16.80;73.00;;;;;;5037459;28;20029;-72
2021/09/11 00:23:00;;;;;;;6.07;3.13;;;16.80;72.80;;;;;;5038646;28;20496;-72
2021/09/11 00:25:27;;;;;;;6.18;2.92;;;16.80;73.90;;;;;;5025409;28;20094;-72
2021/09/11 00:27:52;;;;;;;6.43;3.25;;;16.80;74.40;;;;;;5038352;28;20018;-72
2021/09/11 00:30:18;;;;;;;7.57;2.92;;;16.80;74.80;;;;;;5036981;28;20040;-72
2021/09/11 00:32:44;;;;;;;5.68;2.70;;;16.80;75.50;;;;;;5038301;28;20034;-72
2021/09/11 00:35:12;;;;;;;6.70;3.42;;;16.80;74.50;;;;;;5038163;28;20028;-72
2021/09/11 00:37:38;;;;;;;6.60;3.35;;;16.80;75.20;;;;;;5038163;28;20037;-72
2021/09/11 00:40:04;;;;;;;7.07;3.15;;;16.70;74.80;;;;;;5032394;28;20029;-72
2021/09/11 00:42:30;;;;;;;6.63;3.20;;;16.70;75.10;;;;;;5032783;28;20536;-72
2021/09/11 00:44:56;;;;;;;6.80;3.30;;;16.70;75.30;;;;;;5038196;28;20117;-72
2021/09/11 00:47:21;;;;;;;7.07;3.47;;;16.60;75.80;;;;;;5037962;28;20020;-72
2021/09/11 00:49:47;;;;;;;8.43;3.83;;;16.60;76.10;;;;;;5038411;28;20026;-72
2021/09/11 00:52:13;;;;;;;7.03;3.40;;;16.50;76.30;;;;;;5037703;28;20143;-72
2021/09/11 00:54:40;;;;;;;5.38;2.90;;;16.50;75.80;;;;;;5038010;28;20037;-72
2021/09/11 00:57:06;;;;;;;6.85;3.40;;;16.40;74.60;;;;;;5037714;28;20021;-72
2021/09/11 00:59:32;;;;;;;6.57;3.20;;;16.40;75.70;;;;;;5037637;28;20105;-72
2021/09/11 01:01:58;;;;;;;5.53;3.33;;;16.30;74.90;;;;;;5037622;28;20095;-72
2021/09/11 01:04:27;;;;;;;6.68;3.47;;;16.30;76.50;;;;;;5038061;28;20021;-72
2021/09/11 01:06:54;;;;;;;7.30;4.30;;;16.20;75.60;;;;;;5037615;28;20053;-72
2021/09/11 01:09:20;;;;;;;6.65;3.40;;;16.20;77.00;;;;;;5036593;28;20029;-72
2021/09/11 01:11:46;;;;;;;5.85;3.33;;;16.10;76.90;;;;;;5024481;28;20022;-72
2021/09/11 01:14:12;;;;;;;8.15;3.78;;;16.10;77.20;;;;;;5037544;28;20025;-72
2021/09/11 01:16:37;;;;;;;7.72;4.00;;;16.00;77.20;;;;;;5036219;28;20025;-72
2021/09/11 01:19:03;;;;;;;6.72;3.53;;;16.00;77.20;;;;;;5037582;28;20477;-72
2021/09/11 01:21:29;;;;;;;6.93;3.40;;;16.00;77.30;;;;;;5037643;28;20044;-72
2021/09/11 01:23:55;;;;;;;5.80;3.00;;;15.90;75.90;;;;;;5037738;28;20017;-72
2021/09/11 01:26:21;;;;;;;5.82;3.05;;;15.90;75.80;;;;;;5037368;28;20419;-72
2021/09/11 01:28:47;;;;;;;7.65;3.10;;;15.80;75.30;;;;;;5035948;28;20168;-72
2021/09/11 01:31:12;;;;;;;5.40;2.83;;;15.80;74.60;;;;;;5037453;28;20026;-72
2021/09/11 01:33:38;;;;;;;6.70;2.72;;;15.70;74.00;;;;;;5037156;28;20045;-72
2021/09/11 01:36:04;;;;;;;5.05;2.60;;;15.70;74.00;;;;;;5037343;28;20037;-72
2021/09/11 01:38:30;;;;;;;5.22;3.00;;;15.60;74.00;;;;;;5037534;28;20025;-72
2021/09/11 01:40:56;;;;;;;6.57;2.78;;;15.60;73.80;;;;;;5026322;28;20018;-72
2021/09/11 01:43:30;;;;;;;6.75;2.90;;;15.50;73.60;;;;;;5035842;28;20112;-72
2021/09/11 01:45:57;;;;;;;6.10;3.00;;;15.50;73.60;;;;;;5037013;28;20025;-72
2021/09/11 01:48:23;;;;;;;5.28;3.13;;;15.50;73.40;;;;;;5037425;28;20508;-72
2021/09/11 01:50:48;;;;;;;5.57;2.63;;;15.40;73.40;;;;;;5035841;28;20033;-72
2021/09/11 01:53:15;;;;;;;5.25;2.50;;;15.40;73.40;;;;;;5037139;28;20048;-72
2021/09/11 01:55:41;;;;;;;6.35;3.40;;;15.30;73.30;;;;;;5035881;28;20032;-72
2021/09/11 01:58:06;;;;;;;8.63;3.20;;;15.30;74.30;;;;;;5037097;28;20030;-72
2021/09/11 02:00:32;;;;;;;6.43;3.33;;;15.30;74.60;;;;;;5037118;28;20502;-72
2021/09/11 02:02:58;;;;;;;5.20;2.90;;;15.20;74.00;;;;;;5037314;28;20041;-72
2021/09/11 02:05:24;;;;;;;4.95;2.72;;;15.20;73.80;;;;;;5035682;28;20022;-72
2021/09/11 02:07:50;;;;;;;5.68;2.78;;;15.20;73.60;;;;;;5037349;28;20435;-73
2021/09/11 02:10:18;;;;;;;7.43;3.42;;;15.10;73.50;;;;;;5034769;28;20555;-73
2021/09/11 02:12:44;;;;;;;6.80;2.67;;;15.10;73.80;;;;;;5026150;28;20060;-74
2021/09/11 02:15:11;;;;;;;4.75;2.40;;;15.10;73.40;;;;;;5036706;28;20555;-73
2021/09/11 02:17:38;;;;;;;5.95;2.67;;;15.10;73.30;;;;;;5037134;28;20026;-73
2021/09/11 02:20:05;;;;;;;4.95;2.90;;;15.00;73.40;;;;;;5036795;28;20461;-73
2021/09/11 02:22:31;;;;;;;5.15;3.00;;;15.00;73.30;;;;;;5036906;28;20033;-73
2021/09/11 02:24:57;;;;;;;6.63;2.95;;;14.90;73.50;;;;;;5036725;28;20021;-73
2021/09/11 02:27:23;;;;;;;5.82;2.80;;;14.90;74.10;;;;;;5037143;28;20017;-73
2021/09/11 02:29:49;;;;;;;5.88;2.63;;;14.90;73.60;;;;;;5036549;28;20018;-73
2021/09/11 02:32:15;;;;;;;5.07;2.58;;;14.90;73.30;;;;;;5036749;28;20108;-73
2021/09/11 02:34:40;;;;;;;5.50;2.83;;;14.80;73.50;;;;;;5035615;28;20056;-73
2021/09/11 02:37:08;;;;;;;6.10;3.10;;;14.80;73.70;;;;;;5036888;28;20029;-73
2021/09/11 02:39:34;;;;;;;6.78;2.88;;;14.70;73.70;;;;;;5033456;28;20037;-73
2021/09/11 02:42:00;;;;;;;5.60;2.60;;;14.70;73.70;;;;;;5026466;28;20396;-73
2021/09/11 02:44:26;;;;;;;4.57;2.53;;;14.70;73.80;;;;;;5035147;28;20488;-73
2021/09/11 02:46:52;;;;;;;5.85;2.97;;;14.60;73.90;;;;;;5036960;28;20123;-73
2021/09/11 02:49:18;;;;;;;4.85;2.20;;;14.50;74.00;;;;;;5035456;28;20507;-73
2021/09/11 02:51:43;;;;;;;6.13;3.08;;;14.50;74.00;;;;;;5035792;28;20036;-73
2021/09/11 02:54:10;;;;;;;6.35;2.80;;;14.50;74.00;;;;;;5036772;28;20403;-73
2021/09/11 02:56:36;;;;;;;6.00;2.70;;;14.50;74.10;;;;;;5040151;28;20484;-73
2021/09/11 02:59:02;;;;;;;5.28;2.90;;;14.40;74.30;;;;;;5039610;28;20120;-73
2021/09/11 03:01:28;;;;;;;6.55;2.88;;;14.40;74.60;;;;;;5040217;28;20093;-73
2021/09/11 03:03:54;;;;;;;5.13;3.03;;;14.30;74.60;;;;;;5038690;28;20017;-73
2021/09/11 03:06:20;;;;;;;6.20;3.30;;;14.30;74.80;;;;;;5040167;28;20045;-73
2021/09/11 03:08:45;;;;;;;5.93;3.13;;;14.30;74.80;;;;;;5039753;28;20603;-73
2021/09/11 03:11:11;;;;;;;5.30;3.22;;;14.30;74.70;;;;;;5030413;28;20397;-73
2021/09/11 03:13:37;;;;;;;6.00;2.92;;;14.20;74.90;;;;;;5036023;28;20063;-73
2021/09/11 03:16:03;;;;;;;4.97;2.75;;;14.20;74.70;;;;;;5039980;28;20026;-73
2021/09/11 03:18:29;;;;;;;6.88;3.15;;;14.10;74.80;;;;;;5038293;28;20079;-74
2021/09/11 03:20:55;;;;;;;8.60;3.38;;;14.10;74.70;;;;;;5038553;28;20025;-73
2021/09/11 03:23:21;;;;;;;7.65;2.95;;;14.00;74.60;;;;;;5038287;28;20021;-73
2021/09/11 03:25:47;;;;;;;6.30;3.00;;;14.10;75.00;;;;;;5039560;28;20028;-73
2021/09/11 03:28:13;;;;;;;5.55;3.08;;;14.00;74.80;;;;;;5038211;28;20523;-73
2021/09/11 03:30:38;;;;;;;6.30;3.33;;;14.00;74.90;;;;;;5039380;28;20032;-73
2021/09/11 03:33:05;;;;;;;6.22;3.22;;;14.00;74.70;;;;;;5039266;28;20413;-73
2021/09/11 03:35:30;;;;;;;7.10;2.80;;;13.90;74.60;;;;;;5039363;28;20033;-73
2021/09/11 03:37:56;;;;;;;6.20;3.20;;;13.90;74.80;;;;;;5039358;28;20097;-73
2021/09/11 03:40:22;;;;;;;6.65;2.75;;;13.90;74.60;;;;;;5030989;28;20052;-73
2021/09/11 03:42:48;;;;;;;6.72;3.08;;;13.80;74.50;;;;;;5036450;28;20025;-73
2021/09/11 03:45:14;;;;;;;6.70;2.63;;;13.80;74.80;;;;;;5039143;28;20036;-73
2021/09/11 03:47:40;;;;;;;5.68;3.10;;;13.80;74.80;;;;;;5039217;28;20056;-73
2021/09/11 03:50:07;;;;;;;6.25;3.17;;;13.80;74.80;;;;;;5038317;28;20033;-73
2021/09/11 03:52:33;;;;;;;6.97;2.97;;;13.70;74.50;;;;;;5039034;28;20030;-73
2021/09/11 03:55:00;;;;;;;5.25;2.67;;;13.70;74.70;;;;;;5039053;28;20026;-73
2021/09/11 03:57:26;;;;;;;7.30;3.30;;;13.70;74.90;;;;;;5038975;28;20492;-73
2021/09/11 03:59:52;;;;;;;5.80;2.88;;;13.70;74.90;;;;;;5038662;28;20495;-73
2021/09/11 04:02:18;;;;;;;7.00;3.28;;;13.70;74.90;;;;;;5038901;28;20069;-73
2021/09/11 04:04:44;;;;;;;5.70;2.92;;;13.70;75.00;;;;;;5038907;28;20052;-73
2021/09/11 04:07:10;;;;;;;6.22;3.15;;;13.70;75.00;;;;;;5038599;28;20136;-73
2021/09/11 04:09:36;;;;;;;5.45;3.15;;;13.60;74.90;;;;;;5038745;28;20147;-73
2021/09/11 04:12:02;;;;;;;5.88;3.28;;;13.60;75.10;;;;;;5025285;28;20097;-73
2021/09/11 04:14:28;;;;;;;5.93;2.90;;;13.60;75.20;;;;;;5038630;28;20084;-73
2021/09/11 04:16:54;;;;;;;6.13;3.47;;;13.60;75.20;;;;;;5038656;28;20025;-73
2021/09/11 04:19:20;;;;;;;5.50;3.10;;;13.50;75.10;;;;;;5038759;28;20543;-73
2021/09/11 04:21:46;;;;;;;7.03;3.00;;;13.50;75.20;;;;;;5038478;28;20096;-73
2021/09/11 04:24:11;;;;;;;5.93;3.10;;;13.50;75.20;;;;;;5038575;28;20451;-73
2021/09/11 04:26:37;;;;;;;6.78;2.97;;;13.40;75.20;;;;;;5037264;28;20013;-73
2021/09/11 04:29:06;;;;;;;5.80;2.85;;;13.40;75.10;;;;;;5038417;28;20048;-73
2021/09/11 04:31:32;;;;;;;6.47;2.85;;;13.30;75.00;;;;;;5038348;28;20025;-73
2021/09/11 04:33:58;;;;;;;6.72;3.42;;;13.30;75.10;;;;;;5038205;28;20049;-73
2021/09/11 04:36:24;;;;;;;5.65;2.95;;;13.20;75.10;;;;;;5038240;28;20021;-73
2021/09/11 04:38:50;;;;;;;5.45;2.90;;;13.20;75.20;;;;;;5038110;28;20033;-73
2021/09/11 04:41:16;;;;;;;7.40;3.10;;;13.20;75.30;;;;;;5036518;28;20098;-73
2021/09/11 04:43:41;;;;;;;5.47;3.22;;;13.20;75.20;;;;;;5038247;28;20464;-73
2021/09/11 04:46:07;;;;;;;6.82;3.65;;;13.10;75.30;;;;;;5038004;28;20052;-73
2021/09/11 04:48:33;;;;;;;7.60;2.97;;;13.10;75.30;;;;;;5038214;28;20036;-73
2021/09/11 04:50:59;;;;;;;4.45;2.58;;;13.00;75.30;;;;;;5037923;28;20026;-73
2021/09/11 04:53:25;;;;;;;6.40;3.20;;;13.00;75.30;;;;;;5038090;28;20511;-73
2021/09/11 04:55:51;;;;;;;7.60;3.55;;;13.00;75.30;;;;;;5037702;28;20033;-73
2021/09/11 04:58:17;;;;;;;5.22;3.03;;;13.00;75.20;;;;;;5038040;28;20026;-73
2021/09/11 05:00:43;;;;;;;5.97;3.03;;;13.00;75.30;;;;;;5037554;28;20021;-73
2021/09/11 05:03:09;;;;;;;6.45;3.17;;;12.90;75.30;;;;;;5036861;28;20029;-73
2021/09/11 05:05:35;;;;;;;5.35;2.72;;;12.90;75.40;;;;;;5037697;28;20489;-73
2021/09/11 05:08:00;;;;;;;6.30;3.17;;;12.90;75.40;;;;;;5037811;28;20039;-73
2021/09/11 05:10:27;;;;;;;5.18;2.72;;;12.80;75.30;;;;;;5033995;28;20053;-73
2021/09/11 05:12:53;;;;;;;6.43;3.17;;;12.80;75.30;;;;;;5028194;28;20365;-73
2021/09/11 05:15:20;;;;;;;7.65;3.60;;;12.80;75.40;;;;;;5037340;28;20064;-73
2021/09/11 05:17:46;;;;;;;10.60;3.38;;;12.80;75.10;;;;;;5035739;28;20036;-73
2021/09/11 05:20:13;;;;;;;6.32;3.03;;;12.80;75.40;;;;;;5037458;28;20492;-73
2021/09/11 05:22:39;;;;;;;5.95;3.03;;;12.70;75.20;;;;;;5036286;28;20480;-73
2021/09/11 05:25:07;;;;;;;6.93;3.38;;;12.70;75.10;;;;;;5037347;28;20105;-74
2021/09/11 05:27:32;;;;;;;6.13;3.40;;;12.70;75.30;;;;;;5037538;28;20056;-73
2021/09/11 05:29:58;;;;;;;5.80;3.30;;;12.70;75.50;;;;;;5037421;28;20025;-73
2021/09/11 05:32:24;;;;;;;6.68;3.30;;;12.70;75.30;;;;;;5037196;28;20506;-73
2021/09/11 05:34:50;;;;;;;5.80;3.08;;;12.70;75.60;;;;;;5037245;28;20025;-73
2021/09/11 05:37:16;;;;;;;6.07;3.22;;;12.70;76.00;;;;;;5037390;28;20053;-73
2021/09/11 05:39:42;;;;;;;6.25;3.33;;;12.70;76.30;;;;;;5034320;28;20029;-73
2021/09/11 05:42:08;;;;;;;5.93;3.20;;;12.70;75.50;;;;;;5028987;28;20051;-73
2021/09/11 05:44:34;;;;;;;5.68;3.20;;;12.60;75.30;;;;;;5037046;28;20092;-73
2021/09/11 05:47:00;;;;;;;7.03;2.88;;;12.60;75.40;;;;;;5037342;28;20021;-73
2021/09/11 05:49:26;;;;;;;6.13;3.03;;;12.60;75.50;;;;;;5037188;28;20032;-73
2021/09/11 05:51:53;;;;;;;6.38;3.40;;;12.60;75.70;;;;;;5037198;28;20104;-73
2021/09/11 05:54:19;;;;;;;6.72;3.05;;;12.60;75.60;;;;;;5037010;28;20109;-73
2021/09/11 05:56:45;;;;;;;7.28;3.20;;;12.50;75.80;;;;;;5037190;28;20025;-73
2021/09/11 05:59:11;;;;;;;5.10;2.78;;;12.50;75.90;;;;;;5036641;28;20021;-73
2021/09/11 06:01:39;;;;;;;6.10;2.70;;;12.50;75.60;;;;;;5037188;28;20361;-73
2021/09/11 06:04:05;;;;;;;3.95;2.03;;;12.50;75.70;;;;;;5037140;28;20079;-73
2021/09/11 06:06:31;;;;;;;4.50;2.25;;;12.50;75.90;;;;;;5037184;28;20097;-73
2021/09/11 06:08:57;;;;;;;4.13;1.90;;;12.50;76.10;;;;;;5036938;28;20435;-74
2021/09/11 06:11:23;;;;;;;3.35;1.75;;;12.50;76.30;;;;;;5025913;28;20033;-73
2021/09/11 06:13:48;;;;;;;3.05;1.50;;;12.50;76.10;;;;;;5034871;28;20026;-77
2021/09/11 06:16:14;;;;;;;3.30;1.88;;;12.50;75.90;;;;;;5037027;28;20036;-73
2021/09/11 06:18:41;;;;;;;4.15;2.03;;;12.50;75.90;;;;;;5036789;28;20026;-72
2021/09/11 06:21:07;;;;;;;3.67;1.98;;;12.50;76.30;;;;;;5036710;28;20022;-73
2021/09/11 06:23:33;;;;;;;3.95;2.05;;;12.50;76.40;;;;;;5036760;28;20021;-75
2021/09/11 06:26:00;;;;;;;4.10;1.90;;;12.50;76.40;;;;;;5036888;28;20071;-74
2021/09/11 06:28:27;;;;;;;4.75;2.08;;;12.60;76.50;;;;;;5037562;28;20053;-77
2021/09/11 06:30:53;;;;;;;4.63;2.00;;;12.60;76.40;;;;;;5040719;28;20168;-75
2021/09/11 06:33:19;;;;;;;3.55;1.80;;;12.60;76.50;;;;;;5040330;28;20067;-75
2021/09/11 06:35:45;;;;;;;5.80;2.65;;;12.60;76.40;;;;;;5040551;28;20033;-75
2021/09/11 06:38:11;;;;;;;6.85;2.78;;;12.60;76.30;;;;;;5039280;28;20068;-75
2021/09/11 06:40:37;;;;;;;6.97;3.17;;;12.60;76.20;;;;;;5035492;28;20053;-74
2021/09/11 06:43:03;;;;;;;6.15;3.03;;;12.60;76.40;;;;;;5039979;28;20021;-74
2021/09/11 06:45:28;;;;;;;4.97;3.00;;;12.60;76.60;;;;;;5040210;28;20024;-73
2021/09/11 06:47:54;;;;;;;7.03;3.60;;;12.70;76.60;;;;;;5040349;28;20025;-73
2021/09/11 06:50:20;;;;;;;6.55;3.75;;;12.70;76.60;;;;;;5040554;28;20428;-73
2021/09/11 06:52:46;;;;;;;6.10;3.50;;;12.70;76.60;;;;;;5040234;28;20018;-74
2021/09/11 06:55:12;;;;;;;7.15;3.22;;;12.70;76.90;;;;;;5040171;28;20021;-76
2021/09/11 06:57:38;;;;;;;6.13;3.38;;;12.80;76.60;;;;;;5039099;28;20037;-84
2021/09/11 07:00:06;;;;;;;7.28;4.10;;;12.80;76.60;;;;;;5038595;28;20025;-78
2021/09/11 07:02:32;;;;;;;5.60;3.20;;;12.80;76.60;;;;;;5027215;28;20054;-78
2021/09/11 07:04:58;;;;;;;6.28;3.20;;;12.90;76.80;;;;;;5039959;28;20109;-83
2021/09/11 07:07:23;;;;;;;5.35;2.92;;;12.90;77.10;;;;;;5040413;28;20025;-88
2021/09/11 07:09:49;;;;;;;4.90;2.90;;;12.90;76.70;;;;;;5039875;28;20026;-77
2021/09/11 07:12:16;;;;;;;5.95;2.97;;;13.00;76.60;;;;;;5026296;28;20059;-81
2021/09/11 07:14:43;;;;;;;5.05;2.88;;;13.00;76.60;;;;;;5039211;28;20081;-78
2021/09/11 07:17:09;;;;;;;5.93;2.95;;;13.00;76.40;;;;;;5039511;28;20404;-82
2021/09/11 07:19:35;;;;;;;11.75;5.07;;;13.10;76.40;;;;;;5039984;28;20021;-78
2021/09/11 07:22:00;;;;;;;22.75;13.23;;;13.20;76.90;;;;;;5038830;28;20029;-79
2021/09/11 07:24:26;;;;;;;16.80;10.15;;;13.20;76.80;;;;;;5039585;28;20030;-78
2021/09/11 07:26:53;;;;;;;14.07;8.38;;;13.30;76.50;;;;;;5038423;28;20021;-80
2021/09/11 07:29:19;;;;;;;14.88;7.90;;;13.30;76.50;;;;;;5037735;28;20025;-85
2021/09/11 07:31:45;;;;;;;13.35;7.97;;;13.40;76.40;;;;;;5038980;28;20476;-83
2021/09/11 07:34:10;;;;;;;12.98;7.32;;;13.40;76.30;;;;;;5037604;28;20119;-83
2021/09/11 07:36:37;;;;;;;9.00;5.45;;;13.50;76.30;;;;;;5039019;28;20060;-83
2021/09/11 07:39:03;;;;;;;9.07;5.32;;;13.60;76.50;;;;;;5039361;28;20026;-83
2021/09/11 07:41:29;;;;;;;7.88;3.90;;;13.60;76.60;;;;;;5027633;28;20205;-83
2021/09/11 07:43:55;;;;;;;6.75;3.95;;;13.70;76.80;;;;;;5037932;28;20022;-83
2021/09/11 07:46:20;;;;;;;7.57;4.10;;;13.80;77.00;;;;;;5039441;28;20092;-82
2021/09/11 07:48:46;;;;;;;7.78;3.50;;;13.90;77.70;;;;;;5038125;28;20021;-83
2021/09/11 07:51:12;;;;;;;7.05;4.05;;;14.00;78.00;;;;;;5039689;28;20026;-83
2021/09/11 07:53:38;;;;;;;6.40;3.42;;;14.20;79.20;;;;;;5039118;28;20028;-83
2021/09/11 07:56:04;;;;;;;9.63;4.25;;;14.40;79.90;;;;;;5039293;28;20060;-84
2021/09/11 07:58:30;;;;;;;6.47;2.88;;;14.70;80.10;;;;;;5037467;28;20032;-84
2021/09/11 08:00:56;;;;;;;7.90;3.33;;;14.90;80.30;;;;;;5039127;28;20052;-84
2021/09/11 08:03:24;;;;;;;6.05;3.08;;;15.30;80.80;;;;;;5039038;28;20045;-83
2021/09/11 08:05:50;;;;;;;8.98;3.50;;;15.70;81.00;;;;;;5026287;28;20032;-83
2021/09/11 08:08:16;;;;;;;9.55;3.70;;;16.10;80.70;;;;;;5037555;28;20384;-83
2021/09/11 08:10:42;;;;;;;8.90;3.50;;;16.50;80.40;;;;;;5033213;28;20072;-83
2021/09/11 08:13:07;;;;;;;6.53;3.05;;;16.80;80.60;;;;;;5029817;28;20033;-83
2021/09/11 08:15:33;;;;;;;5.88;3.50;;;17.50;81.30;;;;;;5037107;28;20105;-83
2021/09/11 08:18:01;;;;;;;7.43;3.45;;;18.30;81.00;;;;;;5038769;28;20060;-83
2021/09/11 08:20:32;;;;;;;6.85;3.30;;;19.30;80.60;;;;;;5038512;28;20018;-84
2021/09/11 08:23:01;;;;;;;6.55;2.92;;;20.40;79.30;;;;;;5038737;28;20025;-84
2021/09/11 08:25:27;;;;;;;7.60;3.25;;;21.40;77.40;;;;;;5037404;28;20017;-83
2021/09/11 08:27:53;;;;;;;6.25;2.95;;;22.30;75.80;;;;;;5038411;28;20035;-84
2021/09/11 08:30:19;;;;;;;7.50;3.03;;;22.90;74.30;;;;;;5038487;28;20372;-84
2021/09/11 08:32:44;;;;;;;4.10;2.15;;;23.60;73.30;;;;;;5036798;28;20064;-84
2021/09/11 08:35:13;;;;;;;7.15;2.58;;;24.10;72.00;;;;;;5038445;28;20400;-84
2021/09/11 08:37:39;;;;;;;5.57;2.30;;;24.70;72.30;;;;;;5038214;28;20384;-84
2021/09/11 08:40:05;;;;;;;9.57;2.22;;;25.40;69.30;;;;;;5032508;28;20026;-82
2021/09/11 08:42:33;;;;;;;8.93;2.22;;;26.20;65.70;;;;;;5033509;28;20025;-83
2021/09/11 08:44:59;;;;;;;4.43;1.88;;;26.90;60.30;;;;;;5038154;28;20022;-83
2021/09/11 08:47:25;;;;;;;10.35;2.75;;;27.40;60.60;;;;;;5038015;28;20095;-83
2021/09/11 08:49:51;;;;;;;6.50;2.65;;;27.40;62.80;;;;;;5038286;28;20021;-81
2021/09/11 08:52:17;;;;;;;5.63;1.92;;;27.70;63.40;;;;;;5036918;28;20083;-83
2021/09/11 08:54:43;;;;;;;5.10;1.50;;;28.20;62.30;;;;;;5038154;28;20021;-81
2021/09/11 08:57:26;;;;;;;5.30;1.60;;;28.60;59.90;;;;;;5037844;28;20071;-81
2021/09/11 08:59:53;;;;;;;4.47;1.50;;;28.70;59.30;;;;;;5037498;28;20103;-81
2021/09/11 09:02:23;;;;;;;4.55;1.55;;;28.80;58.70;;;;;;5036372;28;20021;-81
2021/09/11 09:04:58;;;;;;;6.28;2.00;;;29.20;55.80;;;;;;5036581;28;20104;-81
2021/09/11 09:07:32;;;;;;;4.10;1.60;;;29.50;53.60;;;;;;5037623;28;20403;-81
2021/09/11 09:10:13;;;;;;;4.78;1.60;;;29.80;54.30;;;;;;5037702;28;20053;-81
2021/09/11 09:12:41;;;;;;;6.53;1.93;;;29.90;56.30;;;;;;5026626;28;20025;-82
2021/09/11 09:15:10;;;;;;;6.53;2.35;;;30.40;55.40;;;;;;5037393;28;20043;-81
2021/09/11 09:17:47;;;;;;;5.90;1.63;;;30.70;55.30;;;;;;5037717;28;20026;-81
2021/09/11 09:20:28;;;;;;;5.15;1.80;;;31.10;55.50;;;;;;5037497;28;20108;-81
2021/09/11 09:23:00;;;;;;;6.30;2.10;;;31.50;54.60;;;;;;5031404;28;20472;-82
2021/09/11 09:25:31;;;;;;;4.82;1.70;;;32.00;54.10;;;;;;5037397;28;20278;-82
2021/09/11 09:28:07;;;;;;;6.72;1.90;;;32.20;53.90;;;;;;5037234;28;20026;-82
2021/09/11 09:30:45;;;;;;;6.32;1.80;;;32.20;52.80;;;;;;5037272;28;20033;-82
2021/09/11 09:33:29;;;;;;;6.68;1.85;;;32.40;53.60;;;;;;5036870;28;20049;-82
2021/09/11 09:36:00;;;;;;;4.47;1.45;;;32.80;49.40;;;;;;5032384;28;20060;-82
2021/09/11 09:38:26;;;;;;;6.97;1.70;;;32.90;50.90;;;;;;5037487;28;20029;-82
2021/09/11 09:40:53;;;;;;;6.18;1.75;;;33.00;51.00;;;;;;5034513;28;20079;-82
2021/09/11 09:43:42;;;;;;;5.82;1.50;;;33.30;49.60;;;;;;5037096;28;20038;-82
2021/09/11 09:46:11;;;;;;;4.55;1.67;;;33.60;50.30;;;;;;5035844;28;20018;-81
2021/09/11 09:48:41;;;;;;;4.50;1.65;;;33.80;49.70;;;;;;5035905;28;20029;-81
2021/09/11 09:51:08;;;;;;;6.07;1.50;;;34.10;46.60;;;;;;5037434;28;20430;-82
2021/09/11 09:53:35;;;;;;;4.18;1.30;;;34.20;48.00;;;;;;5036807;28;20773;-81
2021/09/11 09:56:01;;;;;;;6.10;1.23;;;34.50;45.70;;;;;;5035942;28;20034;-81
2021/09/11 09:58:28;;;;;;;3.10;1.23;;;34.60;41.60;;;;;;5035322;28;20427;-81
2021/09/11 10:00:54;;;;;;;4.40;1.45;;;34.70;45.50;;;;;;5037363;28;20022;-82
2021/09/11 10:03:20;;;;;;;3.95;1.05;;;34.70;44.00;;;;;;5037684;28;20095;-81
2021/09/11 10:06:00;;;;;;;3.45;1.30;;;34.70;44.20;;;;;;5041300;28;20026;-81
2021/09/11 10:08:28;;;;;;;3.75;1.10;;;34.80;44.30;;;;;;5041040;28;20053;-82
2021/09/11 10:10:54;;;;;;;3.65;1.02;;;34.90;42.40;;;;;;5033916;28;20099;-81
2021/09/11 10:13:23;;;;;;;4.82;1.50;;;35.00;44.60;;;;;;5035162;28;20434;-82
2021/09/11 10:15:57;;;;;;;3.05;1.15;;;35.10;45.40;;;;;;5041186;28;20048;-82
2021/09/11 10:18:38;;;;;;;2.63;1.10;;;35.20;44.30;;;;;;5040746;28;20109;-83
2021/09/11 10:21:12;;;;;;;3.45;1.10;;;35.40;43.90;;;;;;5041041;28;20021;-82
2021/09/11 10:23:38;;;;;;;4.65;1.10;;;35.50;45.10;;;;;;5040637;28;20056;-83
2021/09/11 10:26:04;;;;;;;3.25;1.00;;;35.60;43.80;;;;;;5040888;28;20083;-83
2021/09/11 10:28:29;;;;;;;4.60;1.30;;;35.60;44.00;;;;;;5040531;28;20025;-83
2021/09/11 10:31:08;;;;;;;4.45;1.30;;;35.60;42.40;;;;;;5039430;28;20030;-83
2021/09/11 10:33:46;;;;;;;5.43;1.25;;;35.50;42.10;;;;;;5036361;28;20581;-83
2021/09/11 10:36:47;;;;;;;4.07;1.17;;;35.50;41.60;;;;;;5040589;28;20049;-83
2021/09/11 10:39:13;;;;;;;5.22;1.20;;;35.50;43.00;;;;;;5040398;28;20024;-84
2021/09/11 10:41:39;;;;;;;4.95;1.52;;;35.60;43.20;;;;;;5029498;28;20092;-83
2021/09/11 10:44:08;;;;;;;4.97;1.40;;;35.50;37.80;;;;;;5040100;28;20013;-84
2021/09/11 10:46:51;;;;;;;3.38;1.00;;;35.40;40.00;;;;;;5040610;28;20017;-83
2021/09/11 10:49:32;;;;;;;3.30;1.15;;;35.40;40.80;;;;;;5039203;28;20025;-83
2021/09/11 10:52:12;;;;;;;3.33;1.07;;;35.30;39.40;;;;;;5040334;28;20026;-83
2021/09/11 10:54:42;;;;;;;4.00;1.30;;;35.00;39.90;;;;;;5040582;28;20033;-83
2021/09/11 10:57:13;;;;;;;5.20;1.30;;;35.00;41.60;;;;;;5040232;28;20033;-83
2021/09/11 10:59:44;;;;;;;3.80;0.93;;;35.00;40.10;;;;;;5039878;28;20026;-83
2021/09/11 11:02:20;;;;;;;4.83;1.23;;;35.00;40.10;;;;;;5040038;28;20549;-84
2021/09/11 11:04:49;;;;;;;3.35;1.10;;;35.10;40.00;;;;;;5040279;28;20306;-82
2021/09/11 11:07:18;;;;;;;2.70;1.10;;;35.10;39.60;;;;;;5039942;28;20392;-82
2021/09/11 11:09:56;;;;;;;4.65;1.50;;;35.00;37.20;;;;;;5038576;28;20029;-83
2021/09/11 11:12:26;;;;;;;2.85;1.00;;;34.90;37.40;;;;;;5037923;28;20064;-83
2021/09/11 11:15:04;;;;;;;2.95;1.00;;;35.10;39.80;;;;;;5038767;28;20030;-82
2021/09/11 11:17:30;;;;;;;3.08;1.25;;;35.30;41.00;;;;;;5028483;28;20024;-84
2021/09/11 11:19:57;;;;;;;4.43;1.20;;;35.30;39.90;;;;;;5039706;28;20026;-82
2021/09/11 11:22:26;;;;;;;4.72;1.08;;;35.30;38.30;;;;;;5038488;28;20392;-82
2021/09/11 11:24:53;;;;;;;4.20;1.10;;;35.30;38.80;;;;;;5039517;28;20025;-82
2021/09/11 11:27:22;;;;;;;3.47;1.10;;;35.30;39.10;;;;;;5039689;28;20022;-81
2021/09/11 11:29:50;;;;;;;5.38;1.25;;;35.30;40.20;;;;;;5037931;28;20033;-81
2021/09/11 11:32:16;;;;;;;3.33;0.95;;;35.10;38.30;;;;;;5039273;28;20144;-81
2021/09/11 11:34:42;;;;;;;3.40;1.23;;;34.80;38.10;;;;;;5039353;28;20057;-81
2021/09/11 11:37:12;;;;;;;2.70;0.95;;;34.70;37.30;;;;;;5039485;28;20026;-81
2021/09/11 11:39:43;;;;;;;3.30;0.98;;;34.80;40.00;;;;;;5036883;28;21622;-81
2021/09/11 11:42:19;;;;;;;5.60;1.13;;;34.90;40.90;;;;;;5031154;28;20539;-81
2021/09/11 11:44:51;;;;;;;2.90;1.02;;;34.90;39.30;;;;;;5038983;28;20006;-81
2021/09/11 11:47:46;;;;;;;3.55;1.20;;;35.00;41.00;;;;;;5039220;28;20072;-81
2021/09/11 11:50:18;;;;;;;3.45;0.90;;;34.80;39.70;;;;;;5039504;28;20487;-81
2021/09/11 11:52:45;;;;;;;3.10;1.08;;;34.90;40.20;;;;;;5039030;28;20036;-82
2021/09/11 11:55:12;;;;;;;4.00;1.00;;;34.60;37.60;;;;;;5039229;28;20021;-82
2021/09/11 11:57:38;;;;;;;4.20;1.35;;;34.50;38.20;;;;;;5038937;28;20036;-82
2021/09/11 12:00:10;;;;;;;3.13;1.27;;;34.70;40.50;;;;;;5039037;28;20021;-81
2021/09/11 12:02:40;;;;;;;4.95;1.30;;;34.70;40.10;;;;;;5026431;28;20053;-82
2021/09/11 12:05:15;;;;;;;4.80;1.30;;;34.70;40.20;;;;;;5039048;28;20025;-81
2021/09/11 12:07:51;;;;;;;4.95;1.45;;;34.50;39.30;;;;;;5038982;28;20025;-81
2021/09/11 12:10:17;;;;;;;3.42;0.95;;;34.50;40.80;;;;;;5036483;28;20500;-81
2021/09/11 12:12:54;;;;;;;2.60;1.10;;;34.50;41.00;;;;;;5028007;28;20102;-81
2021/09/11 12:15:26;;;;;;;3.28;0.90;;;34.50;41.10;;;;;;5037138;28;20037;-82
2021/09/11 12:18:00;;;;;;;2.58;1.05;;;33.90;37.50;;;;;;5038843;28;20112;-82
2021/09/11 12:20:28;;;;;;;4.10;0.95;;;34.00;39.70;;;;;;5038522;28;20483;-82
2021/09/11 12:23:07;;;;;;;3.17;0.88;;;33.90;40.50;;;;;;5038638;28;20024;-82
2021/09/11 12:26:06;;;;;;;3.50;0.88;;;33.80;40.40;;;;;;5027186;28;20025;-82
2021/09/11 12:28:47;;;;;;;4.88;1.20;;;33.50;40.70;;;;;;5038143;28;20105;-82
2021/09/11 12:31:21;;;;;;;2.00;0.70;;;33.20;40.50;;;;;;5038301;28;20084;-83
2021/09/11 12:33:54;;;;;;;4.18;1.20;;;33.00;40.60;;;;;;5038273;28;20057;-82
2021/09/11 12:36:47;;;;;;;3.42;0.85;;;32.90;40.80;;;;;;5038215;28;20487;-82
2021/09/11 12:39:15;;;;;;;;;;;32.90;41.10;;;;;;5038503;28;20400;-82
2021/09/11 12:41:48;;;;;;;6.22;1.13;;;32.80;41.60;;;;;;5027852;28;19944;-82
2021/09/11 12:44:15;;;;;;;2.92;1.00;;;32.70;41.10;;;;;;5037790;28;20037;-82
2021/09/11 12:46:54;;;;;;;4.78;1.00;;;32.60;41.60;;;;;;5038366;28;20041;-82
2021/09/11 12:49:21;;;;;;;2.55;0.88;;;32.30;40.70;;;;;;5038095;28;20028;-82